createdAt,value
2019-02-27T00:01:54.796Z,53.90
2019-02-27T00:04:23.722Z,60.80
2019-02-27T00:06:52.643Z,52.57
2019-02-27T00:09:21.682Z,60.13
2019-02-27T00:11:50.723Z,56.80
2019-02-27T00:14:19.534Z,54.07
2019-02-27T00:16:48.810Z,58.50
2019-02-27T00:19:17.974Z,66.73
2019-02-27T00:21:46.904Z,70.17
2019-02-27T00:24:16.895Z,67.37
2019-02-27T00:26:45.457Z,65.40
2019-02-27T00:29:14.262Z,65.33
2019-02-27T00:31:46.081Z,68.20
2019-02-27T00:34:14.384Z,66.70
2019-02-27T00:36:45.091Z,73.80
2019-02-27T00:39:14.275Z,68.50
2019-02-27T00:41:43.096Z,73.33
2019-02-27T00:44:13.552Z,65.07
2019-02-27T00:46:43.952Z,62.43
2019-02-27T00:49:12.957Z,64.03
2019-02-27T00:51:44.692Z,65.03
2019-02-27T00:54:12.481Z,63.63
2019-02-27T00:56:44.812Z,64.53
2019-02-27T00:59:12.008Z,60.43
2019-02-27T01:01:41.780Z,61.60
2019-02-27T01:04:11.169Z,63.37
2019-02-27T01:06:39.858Z,63.27
2019-02-27T01:09:08.894Z,59.80
2019-02-27T01:11:39.375Z,63.27
2019-02-27T01:14:08.813Z,59.27
2019-02-27T01:16:38.066Z,62.27
2019-02-27T01:19:06.862Z,66.03
2019-02-27T01:21:35.664Z,60.03
2019-02-27T01:24:04.466Z,60.77
2019-02-27T01:26:33.388Z,73.50
2019-02-27T01:29:02.911Z,73.40
2019-02-27T01:31:31.832Z,63.70
2019-02-27T01:34:11.190Z,65.30
2019-02-27T01:36:38.558Z,68.10
2019-02-27T01:39:08.983Z,64.53
2019-02-27T01:41:38.802Z,62.00
2019-02-27T01:44:07.967Z,60.20
2019-02-27T01:46:41.354Z,56.13
2019-02-27T01:49:11.209Z,61.13
2019-02-27T01:51:40.013Z,51.97
2019-02-27T01:54:08.934Z,56.50
2019-02-27T01:56:37.973Z,59.93
2019-02-27T01:59:07.018Z,57.53
2019-02-27T02:01:35.698Z,53.63
2019-02-27T02:04:04.861Z,55.00
2019-02-27T02:06:33.901Z,54.37
2019-02-27T02:09:12.072Z,56.10
2019-02-27T02:11:47.232Z,59.73
2019-02-27T02:14:46.035Z,57.50
2019-02-27T02:17:52.154Z,59.90
2019-02-27T02:20:43.279Z,61.23
2019-02-27T02:23:40.995Z,62.73
2019-02-27T02:26:35.648Z,68.30
2019-02-27T02:30:01.286Z,61.80
2019-02-27T02:33:12.205Z,63.73
2019-02-27T02:36:25.116Z,59.73
2019-02-27T02:39:24.335Z,63.17
2019-02-27T02:42:13.304Z,63.43
2019-02-27T02:45:11.886Z,67.47
2019-02-27T02:48:31.025Z,62.90
2019-02-27T02:51:42.353Z,63.57
2019-02-27T02:54:39.703Z,64.60
2019-02-27T02:57:35.952Z,61.27
2019-02-27T03:00:42.500Z,65.80
2019-02-27T03:04:02.510Z,66.03
2019-02-27T03:07:00.765Z,61.93
2019-02-27T03:10:07.563Z,60.17
2019-02-27T03:13:06.071Z,60.13
2019-02-27T03:15:55.082Z,60.30
2019-02-27T03:19:06.242Z,55.80
2019-02-27T03:21:50.059Z,57.83
2019-02-27T03:24:30.498Z,60.70
2019-02-27T03:27:30.848Z,58.83
2019-02-27T03:30:34.247Z,58.77
2019-02-27T03:34:05.911Z,55.90
2019-02-27T03:37:14.419Z,59.73
2019-02-27T03:40:27.143Z,57.23
2019-02-27T03:43:14.663Z,59.63
2019-02-27T03:46:14.672Z,54.37
2019-02-27T03:49:17.187Z,58.30
2019-02-27T03:52:36.126Z,59.67
2019-02-27T03:55:44.314Z,58.43
2019-02-27T03:58:26.789Z,59.53
2019-02-27T04:01:30.000Z,58.60
2019-02-27T04:04:29.599Z,59.50
2019-02-27T04:07:49.496Z,63.63
2019-02-27T04:10:19.009Z,63.33
2019-02-27T04:12:51.304Z,57.03
2019-02-27T04:15:18.910Z,58.30
2019-02-27T04:17:51.857Z,62.17
2019-02-27T04:20:17.458Z,60.43
2019-02-27T04:22:46.746Z,65.47
2019-02-27T04:25:16.740Z,58.43
2019-02-27T04:27:46.027Z,60.53
2019-02-27T04:30:17.825Z,59.37
2019-02-27T04:32:48.643Z,59.57
2019-02-27T04:35:18.067Z,57.70
2019-02-27T04:37:48.310Z,57.03
2019-02-27T04:40:36.001Z,55.63
2019-02-27T04:43:04.993Z,54.93
2019-02-27T04:45:33.928Z,51.50
2019-02-27T04:48:05.957Z,53.57
2019-02-27T04:50:37.640Z,47.20
2019-02-27T04:53:06.442Z,47.40
2019-02-27T04:55:35.126Z,49.70
2019-02-27T04:58:08.588Z,49.30
2019-02-27T05:00:35.499Z,46.17
2019-02-27T05:03:05.017Z,52.33
2019-02-27T05:05:35.371Z,51.13
2019-02-27T05:08:04.906Z,51.03
2019-02-27T05:10:34.057Z,52.87
2019-02-27T05:13:02.978Z,52.20
2019-02-27T05:15:32.140Z,50.67
2019-02-27T05:18:02.623Z,52.00
2019-02-27T05:20:32.984Z,50.80
2019-02-27T05:23:02.027Z,48.77
2019-02-27T05:25:32.028Z,46.87
2019-02-27T05:28:01.454Z,51.17
2019-02-27T05:30:31.078Z,50.63
2019-02-27T05:33:02.115Z,44.87
2019-02-27T05:35:31.198Z,48.17
2019-02-27T05:38:06.239Z,46.87
2019-02-27T05:40:35.644Z,52.27
2019-02-27T05:43:04.803Z,44.80
2019-02-27T05:45:33.605Z,48.67
2019-02-27T05:48:02.900Z,48.63
2019-02-27T05:50:34.255Z,49.80
2019-02-27T05:53:03.493Z,45.80
2019-02-27T05:55:33.135Z,47.63
2019-02-27T05:58:01.937Z,44.53
2019-02-27T06:00:31.791Z,49.13
2019-02-27T06:03:00.862Z,52.63
2019-02-27T06:05:29.662Z,46.30
2019-02-27T06:08:02.017Z,49.37
2019-02-27T06:10:29.550Z,53.00
2019-02-27T06:12:58.840Z,52.03
2019-02-27T06:15:28.585Z,49.57
2019-02-27T06:17:58.719Z,49.93
2019-02-27T06:20:28.478Z,50.17
2019-02-27T06:23:07.209Z,48.97
2019-02-27T06:25:36.880Z,53.43
2019-02-27T06:28:07.481Z,46.20
2019-02-27T06:30:38.085Z,52.53
2019-02-27T06:33:11.652Z,46.97
2019-02-27T06:35:38.207Z,52.07
2019-02-27T06:38:11.702Z,48.13
2019-02-27T06:40:42.416Z,47.73
2019-02-27T06:43:17.581Z,46.10
2019-02-27T06:45:46.693Z,46.23
2019-02-27T06:48:15.658Z,44.80
2019-02-27T06:50:44.462Z,41.03
2019-02-27T06:53:15.797Z,42.97
2019-02-27T06:55:43.868Z,40.17
2019-02-27T06:58:14.789Z,42.33
2019-02-27T07:00:56.588Z,45.20
2019-02-27T07:03:33.946Z,47.57
2019-02-27T07:06:22.250Z,44.87
2019-02-27T07:09:02.123Z,44.57
2019-02-27T07:11:52.527Z,41.30
2019-02-27T07:14:32.679Z,38.30
2019-02-27T07:17:15.145Z,38.27
2019-02-27T07:19:50.944Z,45.10
2019-02-27T07:22:51.973Z,46.33
2019-02-27T07:25:32.998Z,42.40
2019-02-27T07:28:11.978Z,40.53
2019-02-27T07:30:53.637Z,39.30
2019-02-27T07:33:45.186Z,39.50
2019-02-27T07:36:27.712Z,40.57
2019-02-27T07:39:07.046Z,41.47
2019-02-27T07:41:45.258Z,43.73
2019-02-27T07:44:20.379Z,40.67
2019-02-27T07:46:58.025Z,43.87
2019-02-27T07:49:53.184Z,43.67
2019-02-27T07:52:32.456Z,45.13
2019-02-27T07:55:28.529Z,40.93
2019-02-27T07:58:11.347Z,44.53
2019-02-27T08:00:50.509Z,45.77
2019-02-27T08:03:24.991Z,41.73
2019-02-27T08:06:17.290Z,45.60
2019-02-27T08:08:56.932Z,41.80
2019-02-27T08:11:38.877Z,47.33
2019-02-27T08:14:20.379Z,47.07
2019-02-27T08:16:59.659Z,49.73
2019-02-27T08:19:37.418Z,45.07
2019-02-27T08:22:27.746Z,48.87
2019-02-27T08:25:03.863Z,45.20
2019-02-27T08:27:43.751Z,42.33
2019-02-27T08:30:22.902Z,41.97
2019-02-27T08:33:19.659Z,45.37
2019-02-27T08:36:01.911Z,43.33
2019-02-27T08:38:40.029Z,45.27
2019-02-27T08:41:29.172Z,44.10
2019-02-27T08:44:03.378Z,44.27
2019-02-27T08:46:46.120Z,41.07
2019-02-27T08:49:43.468Z,40.20
2019-02-27T08:52:25.450Z,39.13
2019-02-27T08:55:07.995Z,40.27
2019-02-27T08:57:45.518Z,42.93
2019-02-27T09:00:25.494Z,42.40
2019-02-27T09:03:05.361Z,42.47
2019-02-27T09:06:01.554Z,43.07
2019-02-27T09:08:43.573Z,41.43
2019-02-27T09:11:23.975Z,41.87
2019-02-27T09:14:01.771Z,38.63
2019-02-27T09:16:47.151Z,39.27
2019-02-27T09:19:24.077Z,38.77
2019-02-27T09:22:04.627Z,36.97
2019-02-27T09:24:40.616Z,36.47
2019-02-27T09:27:27.046Z,38.10
2019-02-27T09:29:56.965Z,39.27
2019-02-27T09:32:49.737Z,38.67
2019-02-27T09:35:34.480Z,38.73
2019-02-27T09:38:18.795Z,40.83
2019-02-27T09:40:55.077Z,38.23
2019-02-27T09:43:35.829Z,38.33
2019-02-27T09:46:19.285Z,39.97
2019-02-27T09:49:00.907Z,40.97
2019-02-27T09:51:38.264Z,37.10
2019-02-27T09:54:15.019Z,40.27
2019-02-27T09:56:55.640Z,38.97
2019-02-27T09:59:35.418Z,37.47
2019-02-27T10:02:12.515Z,35.97
2019-02-27T10:04:51.240Z,36.47
2019-02-27T10:07:32.620Z,36.60
2019-02-27T10:10:18.645Z,44.20
2019-02-27T10:12:59.938Z,38.37
2019-02-27T10:15:39.902Z,41.50
2019-02-27T10:18:18.088Z,39.73
2019-02-27T10:20:53.148Z,37.20
2019-02-27T10:23:31.169Z,36.97
2019-02-27T10:26:07.337Z,39.57
2019-02-27T10:28:44.697Z,38.80
2019-02-27T10:31:21.232Z,39.63
2019-02-27T10:34:00.440Z,39.77
2019-02-27T10:36:38.457Z,40.40
2019-02-27T10:39:15.626Z,38.23
2019-02-27T10:41:55.637Z,40.73
2019-02-27T10:44:33.970Z,40.33
2019-02-27T10:47:10.704Z,38.63
2019-02-27T10:49:52.038Z,36.77
2019-02-27T10:52:32.011Z,37.23
2019-02-27T10:55:22.271Z,36.83
2019-02-27T10:57:57.983Z,38.27
2019-02-27T11:00:50.816Z,36.17
2019-02-27T11:03:27.018Z,33.30
2019-02-27T11:06:33.949Z,32.63
2019-02-27T11:09:20.011Z,34.33
2019-02-27T11:12:00.614Z,36.27
2019-02-27T11:14:39.055Z,32.70
2019-02-27T11:17:21.665Z,33.90
2019-02-27T11:20:01.867Z,31.77
2019-02-27T11:22:55.184Z,31.03
2019-02-27T11:25:33.624Z,32.87
2019-02-27T11:28:15.161Z,32.73
2019-02-27T11:30:51.180Z,32.37
2019-02-27T11:33:32.505Z,30.87
2019-02-27T11:36:06.711Z,28.93
2019-02-27T11:38:43.475Z,32.43
2019-02-27T11:41:37.985Z,31.23
2019-02-27T11:44:28.642Z,29.03
2019-02-27T11:47:11.347Z,28.30
2019-02-27T11:49:52.157Z,31.67
2019-02-27T11:52:49.124Z,32.10
2019-02-27T11:55:24.435Z,29.60
2019-02-27T11:58:24.014Z,30.07
2019-02-27T12:00:59.442Z,29.03
2019-02-27T12:03:30.705Z,29.60
2019-02-27T12:06:05.345Z,28.80
2019-02-27T12:08:59.537Z,30.07
2019-02-27T12:11:32.194Z,26.30
2019-02-27T12:14:15.844Z,27.67
2019-02-27T12:16:54.747Z,28.63
2019-02-27T12:19:43.972Z,26.23
2019-02-27T12:22:20.639Z,27.53
2019-02-27T12:24:58.327Z,29.13
2019-02-27T12:27:48.731Z,27.23
2019-02-27T12:30:18.848Z,25.70
2019-02-27T12:32:56.645Z,26.73
2019-02-27T12:35:36.077Z,24.03
2019-02-27T12:38:11.869Z,26.40
2019-02-27T12:40:52.683Z,25.00
2019-02-27T12:43:27.086Z,26.43
2019-02-27T12:46:05.293Z,25.20
2019-02-27T12:48:53.590Z,24.23
2019-02-27T12:51:31.172Z,27.53
2019-02-27T12:54:16.346Z,24.40
2019-02-27T12:56:53.181Z,24.73
2019-02-27T12:59:37.984Z,24.13
2019-02-27T13:02:12.217Z,23.80
2019-02-27T13:04:53.254Z,22.30
2019-02-27T13:07:29.065Z,23.07
2019-02-27T13:10:09.870Z,26.53
2019-02-27T13:12:51.879Z,25.53
2019-02-27T13:15:27.916Z,24.43
2019-02-27T13:18:08.688Z,22.40
2019-02-27T13:20:50.761Z,22.73
2019-02-27T13:23:42.346Z,21.33
2019-02-27T13:26:16.584Z,23.60
2019-02-27T13:28:55.434Z,21.53
2019-02-27T13:31:36.641Z,23.17
2019-02-27T13:34:14.006Z,23.17
2019-02-27T13:36:54.982Z,20.90
2019-02-27T13:39:43.356Z,23.17
2019-02-27T13:42:23.501Z,22.73
2019-02-27T13:45:03.306Z,22.37
2019-02-27T13:47:45.183Z,18.93
2019-02-27T13:50:26.476Z,21.03
2019-02-27T13:52:59.897Z,21.60
2019-02-27T13:55:36.536Z,21.07
2019-02-27T13:58:14.491Z,18.70
2019-02-27T14:00:53.714Z,20.83
2019-02-27T14:03:32.370Z,22.27
2019-02-27T14:06:16.395Z,21.43
2019-02-27T14:09:00.221Z,21.63
2019-02-27T14:11:38.602Z,25.93
2019-02-27T14:14:17.597Z,21.50
2019-02-27T14:16:58.741Z,22.77
2019-02-27T14:19:37.222Z,21.80
2019-02-27T14:22:20.889Z,23.00
2019-02-27T14:24:59.497Z,21.73
2019-02-27T14:27:35.857Z,21.87
2019-02-27T14:30:17.778Z,21.77
2019-02-27T14:33:10.959Z,24.83
2019-02-27T14:35:47.992Z,21.97
2019-02-27T14:38:25.550Z,22.17
2019-02-27T14:41:19.183Z,22.47
2019-02-27T14:44:01.018Z,23.53
2019-02-27T14:46:52.296Z,25.83
2019-02-27T14:49:31.000Z,22.70
2019-02-27T14:52:25.892Z,21.73
2019-02-27T14:54:59.971Z,20.83
2019-02-27T14:57:50.094Z,22.03
2019-02-27T15:00:26.818Z,23.33
2019-02-27T15:03:16.869Z,23.50
2019-02-27T15:05:55.223Z,24.20
2019-02-27T15:08:31.568Z,22.40
2019-02-27T15:11:09.125Z,21.50
2019-02-27T15:13:46.882Z,23.73
2019-02-27T15:16:29.981Z,23.00
2019-02-27T15:19:06.868Z,24.07
2019-02-27T15:22:00.733Z,22.93
2019-02-27T15:24:35.821Z,25.10
2019-02-27T15:27:22.454Z,22.73
2019-02-27T15:30:02.274Z,23.60
2019-02-27T15:33:03.982Z,23.67
2019-02-27T15:35:38.582Z,22.07
2019-02-27T15:38:24.670Z,22.83
2019-02-27T15:41:03.145Z,23.83
2019-02-27T15:43:59.727Z,22.30
2019-02-27T15:46:35.198Z,22.27
2019-02-27T15:49:16.496Z,23.93
2019-02-27T15:51:55.849Z,23.27
2019-02-27T15:54:45.506Z,24.13
2019-02-27T15:57:24.665Z,26.27
2019-02-27T16:00:24.302Z,23.50
2019-02-27T16:03:11.245Z,24.67
2019-02-27T16:05:53.755Z,24.27
2019-02-27T16:08:32.540Z,23.83
2019-02-27T16:11:30.716Z,20.33
2019-02-27T16:14:09.478Z,21.73
2019-02-27T16:16:43.641Z,23.80
2019-02-27T16:19:22.034Z,23.73
2019-02-27T16:22:07.764Z,21.90
2019-02-27T16:24:49.280Z,22.93
2019-02-27T16:27:32.250Z,22.17
2019-02-27T16:30:09.408Z,21.73
2019-02-27T16:32:58.109Z,21.90
2019-02-27T16:35:33.580Z,22.17
2019-02-27T16:38:14.942Z,23.80
2019-02-27T16:40:53.615Z,24.63
2019-02-27T16:44:00.920Z,21.33
2019-02-27T16:46:43.493Z,25.03
2019-02-27T16:49:29.659Z,20.97
2019-02-27T16:52:13.299Z,20.63
2019-02-27T16:55:07.364Z,21.50
2019-02-27T16:57:44.071Z,21.20
2019-02-27T17:00:32.707Z,19.40
2019-02-27T17:03:13.262Z,20.67
2019-02-27T17:05:46.506Z,22.70
2019-02-27T17:08:23.644Z,21.97
2019-02-27T17:11:01.682Z,24.10
2019-02-27T17:13:31.682Z,22.53
2019-02-27T17:16:11.442Z,26.97
2019-02-27T17:18:51.275Z,23.80
2019-02-27T17:21:32.771Z,24.50
2019-02-27T17:24:11.842Z,24.63
2019-02-27T17:27:07.129Z,28.03
2019-02-27T17:29:46.378Z,22.97
2019-02-27T17:32:30.252Z,24.13
2019-02-27T17:35:06.731Z,34.30
2019-02-27T17:37:44.939Z,34.60
2019-02-27T17:40:29.571Z,32.13
2019-02-27T17:43:10.623Z,29.97
2019-02-27T17:45:55.661Z,27.37
2019-02-27T17:48:53.194Z,29.50
2019-02-27T17:51:26.166Z,30.80
2019-02-27T17:54:01.161Z,30.03
2019-02-27T17:56:49.974Z,36.80
2019-02-27T17:59:32.396Z,32.53
2019-02-27T18:02:07.811Z,29.57
2019-02-27T18:04:45.675Z,38.33
2019-02-27T18:07:34.394Z,36.80
2019-02-27T18:10:09.992Z,35.50
2019-02-27T18:12:52.639Z,34.17
2019-02-27T18:15:33.984Z,34.70
2019-02-27T18:21:09.541Z,35.40
2019-02-27T18:24:06.283Z,35.43
2019-02-27T18:26:41.537Z,34.90
2019-02-27T18:29:31.218Z,32.57
2019-02-27T18:32:09.077Z,32.37
2019-02-27T18:35:08.194Z,36.30
2019-02-27T18:37:42.253Z,33.70
2019-02-27T18:40:25.484Z,33.97
2019-02-27T18:43:04.541Z,32.70
2019-02-27T18:45:50.813Z,34.30
2019-02-27T18:48:23.489Z,36.73
2019-02-27T18:50:58.637Z,35.10
2019-02-27T18:53:35.174Z,37.97
2019-02-27T18:56:12.337Z,34.73
2019-02-27T18:58:55.601Z,37.00
2019-02-27T19:01:41.380Z,34.80
2019-02-27T19:04:19.672Z,40.37
2019-02-27T19:06:57.848Z,37.90
2019-02-27T19:09:38.492Z,37.57
2019-02-27T19:12:19.070Z,40.27
2019-02-27T19:15:14.030Z,36.50
2019-02-27T19:17:50.283Z,33.23
2019-02-27T19:20:29.045Z,36.10
2019-02-27T19:23:04.664Z,34.20
2019-02-27T19:25:47.153Z,31.13
2019-02-27T19:28:26.531Z,32.77
2019-02-27T19:31:09.938Z,33.90
2019-02-27T19:33:46.524Z,32.50
2019-02-27T19:36:55.807Z,32.37
2019-02-27T19:39:33.275Z,33.53
2019-02-27T19:42:16.230Z,34.27
2019-02-27T19:44:52.125Z,37.53
2019-02-27T19:47:30.991Z,34.97
2019-02-27T19:50:08.557Z,36.60
2019-02-27T19:53:07.190Z,37.77
2019-02-27T19:55:39.807Z,36.83
2019-02-27T19:58:30.166Z,39.37
2019-02-27T20:01:08.749Z,38.73
2019-02-27T20:03:36.274Z,38.03
2019-02-27T20:06:05.554Z,40.43
2019-02-27T20:08:34.476Z,41.13
2019-02-27T20:11:05.978Z,43.23
2019-02-27T20:13:35.439Z,45.93
2019-02-27T20:16:04.750Z,48.47
2019-02-27T20:18:33.894Z,54.83
2019-02-27T20:21:03.886Z,54.70
2019-02-27T20:23:33.048Z,52.50
2019-02-27T20:26:02.331Z,46.80
2019-02-27T20:28:32.686Z,46.90
2019-02-27T20:31:02.824Z,43.10
2019-02-27T20:33:34.246Z,40.53
2019-02-27T20:36:03.781Z,38.60
2019-02-27T20:38:33.660Z,40.57
2019-02-27T20:41:06.075Z,39.10
2019-02-27T20:43:40.508Z,39.53
2019-02-27T20:46:10.871Z,39.43
2019-02-27T20:48:39.936Z,40.80
2019-02-27T20:51:12.912Z,38.87
2019-02-27T20:53:42.195Z,41.17
2019-02-27T20:56:11.955Z,39.70
2019-02-27T20:58:40.877Z,42.40
2019-02-27T21:01:12.125Z,39.57
2019-02-27T21:03:41.724Z,40.50
2019-02-27T21:06:12.768Z,38.53
2019-02-27T21:08:42.219Z,37.07
2019-02-27T21:11:11.128Z,35.63
2019-02-27T21:13:40.174Z,34.80
2019-02-27T21:16:10.245Z,36.43
2019-02-27T21:18:39.726Z,32.37
2019-02-27T21:21:09.231Z,34.27
2019-02-27T21:23:38.379Z,35.13
2019-02-27T21:26:13.948Z,33.10
2019-02-27T21:28:45.105Z,32.80
2019-02-27T21:31:14.868Z,31.17
2019-02-27T21:33:45.727Z,31.90
2019-02-27T21:36:14.751Z,32.97
2019-02-27T21:38:47.551Z,35.60
2019-02-27T21:41:17.277Z,40.63
2019-02-27T21:43:52.922Z,53.10
2019-02-27T21:46:22.800Z,41.60
2019-02-27T21:48:51.724Z,34.17
2019-02-27T21:51:20.884Z,36.87
2019-02-27T21:53:49.926Z,29.87
2019-02-27T21:56:18.927Z,31.90
2019-02-27T21:58:48.029Z,34.47
2019-02-27T22:01:19.343Z,34.73
2019-02-27T22:03:47.660Z,33.93
2019-02-27T22:06:17.180Z,34.00
2019-02-27T22:08:46.218Z,33.60
2019-02-27T22:11:15.268Z,31.97
2019-02-27T22:13:45.401Z,31.03
2019-02-27T22:16:14.907Z,30.43
2019-02-27T22:18:46.812Z,29.23
2019-02-27T22:21:15.027Z,31.97
2019-02-27T22:23:44.876Z,32.53
2019-02-27T22:26:14.551Z,32.70
2019-02-27T22:28:43.596Z,35.93
2019-02-27T22:31:12.758Z,35.37
2019-02-27T22:33:41.799Z,33.33
2019-02-27T22:36:12.793Z,32.67
2019-02-27T22:38:42.654Z,32.57
2019-02-27T22:41:11.924Z,34.93
2019-02-27T22:43:41.451Z,35.57
2019-02-27T22:46:13.668Z,37.40
2019-02-27T22:48:42.893Z,37.83
2019-02-27T22:51:12.690Z,38.83
2019-02-27T22:53:43.616Z,36.97
2019-02-27T22:56:16.878Z,37.80
2019-02-27T22:58:45.658Z,35.70
2019-02-27T23:01:30.302Z,34.20
2019-02-27T23:04:02.105Z,34.27
2019-02-27T23:06:30.786Z,37.43
2019-02-27T23:08:59.595Z,34.53
2019-02-27T23:11:28.870Z,34.27
2019-02-27T23:13:57.675Z,35.10
2019-02-27T23:16:29.687Z,40.17
2019-02-27T23:19:03.676Z,36.13
2019-02-27T23:21:32.847Z,35.97
2019-02-27T23:24:07.209Z,36.60
2019-02-27T23:26:47.243Z,31.87
2019-02-27T23:29:16.890Z,37.60
2019-02-27T23:31:45.687Z,35.37
2019-02-27T23:34:15.210Z,37.67
2019-02-27T23:36:44.133Z,38.33
2019-02-27T23:39:12.934Z,34.37
2019-02-27T23:41:41.855Z,35.07
2019-02-27T23:44:12.127Z,39.50
2019-02-27T23:46:48.707Z,39.37
2019-02-27T23:49:12.347Z,36.40
2019-02-27T23:51:41.149Z,36.23
2019-02-27T23:54:10.428Z,40.40
2019-02-27T23:56:38.988Z,41.37
2019-02-27T23:59:07.910Z,39.73
